createdAt,value
2019-03-01T00:02:13.849Z,7.87
2019-03-01T00:05:14.827Z,8.03
2019-03-01T00:08:09.965Z,7.63
2019-03-01T00:11:10.237Z,7.87
2019-03-01T00:14:15.852Z,14.73
2019-03-01T00:17:32.520Z,7.50
2019-03-01T00:20:42.735Z,6.57
2019-03-01T00:23:55.731Z,10.43
2019-03-01T00:26:39.976Z,10.20
2019-03-01T00:29:37.725Z,14.23
2019-03-01T00:32:33.261Z,9.67
2019-03-01T00:35:45.413Z,12.17
2019-03-01T00:38:47.762Z,11.67
2019-03-01T00:42:01.973Z,10.00
2019-03-01T00:44:44.906Z,7.67
2019-03-01T00:47:15.510Z,8.40
2019-03-01T00:49:45.787Z,6.37
2019-03-01T00:52:16.030Z,7.57
2019-03-01T00:54:46.317Z,14.73
2019-03-01T00:57:16.608Z,12.97
2019-03-01T00:59:46.855Z,9.33
2019-03-01T01:02:17.154Z,7.50
2019-03-01T01:04:47.404Z,9.43
2019-03-01T01:07:17.675Z,9.43
2019-03-01T01:09:47.949Z,10.67
2019-03-01T01:12:18.293Z,14.17
2019-03-01T01:14:48.570Z,3.17
2019-03-01T01:17:18.776Z,9.10
2019-03-01T01:19:49.012Z,7.37
2019-03-01T01:22:19.344Z,7.87
2019-03-01T01:24:49.599Z,9.63
2019-03-01T01:27:19.789Z,4.73
2019-03-01T01:29:50.099Z,10.37
2019-03-01T01:32:20.297Z,10.47
2019-03-01T01:34:50.567Z,5.53
2019-03-01T01:37:20.874Z,9.03
2019-03-01T01:39:51.137Z,4.87
2019-03-01T01:42:21.441Z,7.30
2019-03-01T01:44:51.655Z,6.10
2019-03-01T01:47:21.876Z,4.83
2019-03-01T01:49:52.078Z,5.43
2019-03-01T01:52:22.320Z,3.87
2019-03-01T01:54:52.629Z,5.10
2019-03-01T01:57:22.814Z,9.23
2019-03-01T01:59:53.031Z,8.40
2019-03-01T02:02:23.226Z,18.57
2019-03-01T02:04:53.485Z,10.00
2019-03-01T02:07:23.766Z,7.77
2019-03-01T02:09:54.033Z,8.37
2019-03-01T02:12:24.362Z,12.43
2019-03-01T02:14:54.633Z,6.97
2019-03-01T02:17:24.928Z,5.90
2019-03-01T02:19:55.276Z,8.60
2019-03-01T02:22:25.460Z,5.03
2019-03-01T02:24:55.768Z,4.50
2019-03-01T02:27:29.864Z,3.87
2019-03-01T02:30:01.175Z,5.70
2019-03-01T02:32:37.430Z,9.33
2019-03-01T02:35:09.657Z,8.30
2019-03-01T02:37:39.950Z,7.57
2019-03-01T02:40:12.540Z,2.90
2019-03-01T02:42:42.944Z,3.67
2019-03-01T02:45:15.078Z,3.73
2019-03-01T02:47:45.408Z,4.93
2019-03-01T02:50:16.481Z,8.80
2019-03-01T02:52:46.797Z,9.33
2019-03-01T02:55:17.962Z,8.20
2019-03-01T02:57:48.190Z,7.03
2019-03-01T03:00:26.023Z,15.10
2019-03-01T03:02:56.353Z,8.47
2019-03-01T03:05:26.653Z,4.60
2019-03-01T03:07:58.930Z,8.07
2019-03-01T03:10:29.185Z,7.43
2019-03-01T03:13:07.168Z,6.57
2019-03-01T03:15:40.262Z,3.30
2019-03-01T03:18:10.547Z,3.20
2019-03-01T03:20:40.773Z,2.60
2019-03-01T03:23:11.048Z,5.77
2019-03-01T03:25:41.354Z,5.70
2019-03-01T03:28:11.687Z,5.07
2019-03-01T03:30:41.927Z,8.30
2019-03-01T03:33:12.132Z,4.97
2019-03-01T03:35:42.421Z,6.20
2019-03-01T03:38:12.728Z,5.83
2019-03-01T03:40:43.049Z,7.87
2019-03-01T03:43:13.400Z,3.07
2019-03-01T03:45:43.710Z,6.87
2019-03-01T03:48:14.039Z,5.07
2019-03-01T03:50:44.486Z,11.37
2019-03-01T03:53:14.773Z,5.37
2019-03-01T03:55:44.985Z,3.33
2019-03-01T03:58:15.349Z,5.00
2019-03-01T04:00:45.691Z,5.00
2019-03-01T04:03:16.019Z,8.83
2019-03-01T04:05:46.361Z,5.07
2019-03-01T04:08:16.666Z,5.53
2019-03-01T04:10:46.901Z,3.47
2019-03-01T04:13:17.095Z,4.13
2019-03-01T04:15:47.397Z,3.93
2019-03-01T04:18:17.723Z,3.33
2019-03-01T04:20:48.003Z,4.87
2019-03-01T04:23:18.314Z,13.10
2019-03-01T04:25:48.534Z,5.33
2019-03-01T04:28:18.842Z,4.03
2019-03-01T04:30:49.138Z,6.97
2019-03-01T04:33:19.483Z,4.83
2019-03-01T04:35:49.948Z,7.70
2019-03-01T04:38:20.283Z,2.67
2019-03-01T04:40:50.594Z,6.17
2019-03-01T04:43:20.806Z,5.37
2019-03-01T04:45:51.113Z,3.30
2019-03-01T04:48:21.341Z,2.83
2019-03-01T04:50:51.620Z,3.67
2019-03-01T04:53:21.863Z,3.67
2019-03-01T04:55:52.173Z,4.27
2019-03-01T04:58:22.477Z,3.47
2019-03-01T05:00:52.746Z,2.83
2019-03-01T05:03:22.978Z,2.57
2019-03-01T05:05:53.303Z,2.23
2019-03-01T05:08:23.601Z,2.97
2019-03-01T05:10:53.960Z,6.73
2019-03-01T05:13:24.282Z,1.57
2019-03-01T05:15:54.628Z,1.70
2019-03-01T05:18:24.901Z,5.00
2019-03-01T05:20:55.132Z,1.80
2019-03-01T05:23:25.405Z,0.80
2019-03-01T05:25:55.623Z,1.33
2019-03-01T05:28:25.819Z,1.50
2019-03-01T05:30:56.148Z,2.87
2019-03-01T05:33:26.509Z,1.93
2019-03-01T05:35:56.832Z,3.53
2019-03-01T05:38:27.151Z,2.50
2019-03-01T05:40:59.486Z,1.63
2019-03-01T05:43:29.664Z,1.80
2019-03-01T05:45:59.870Z,2.13
2019-03-01T05:48:30.139Z,2.07
2019-03-01T05:51:00.499Z,2.13
2019-03-01T05:53:30.711Z,2.20
2019-03-01T05:56:00.961Z,2.33
2019-03-01T05:58:40.020Z,2.97
2019-03-01T06:01:17.472Z,2.57
2019-03-01T06:04:09.509Z,5.37
2019-03-01T06:07:31.681Z,6.83
2019-03-01T06:10:32.241Z,3.47
2019-03-01T06:13:37.340Z,2.50
2019-03-01T06:16:28.247Z,2.87
2019-03-01T06:19:32.061Z,2.20
2019-03-01T06:22:33.529Z,3.30
2019-03-01T06:26:02.854Z,1.10
2019-03-01T06:29:18.404Z,0.53
2019-03-01T06:32:29.413Z,1.87
2019-03-01T06:35:30.946Z,3.63
2019-03-01T06:38:58.530Z,3.33
2019-03-01T06:42:08.632Z,4.97
2019-03-01T06:44:56.985Z,3.07
2019-03-01T06:47:48.192Z,3.10
2019-03-01T06:50:23.156Z,1.40
2019-03-01T06:52:53.460Z,1.27
2019-03-01T06:55:44.463Z,2.77
2019-03-01T06:58:23.402Z,2.47
2019-03-01T07:01:00.860Z,3.57
2019-03-01T07:03:31.158Z,3.23
2019-03-01T07:06:03.585Z,2.77
2019-03-01T07:08:33.486Z,4.60
2019-03-01T07:11:03.827Z,3.07
2019-03-01T07:13:34.125Z,4.30
2019-03-01T07:16:04.436Z,7.03
2019-03-01T07:18:34.760Z,7.10
2019-03-01T07:21:05.058Z,3.40
2019-03-01T07:23:37.113Z,3.53
2019-03-01T07:26:09.701Z,4.57
2019-03-01T07:28:39.903Z,3.77
2019-03-01T07:31:10.213Z,4.93
2019-03-01T07:33:40.466Z,3.63
2019-03-01T07:36:10.777Z,2.93
2019-03-01T07:38:41.129Z,4.97
2019-03-01T07:41:11.426Z,7.50
2019-03-01T07:43:41.741Z,7.87
2019-03-01T07:46:11.923Z,6.00
2019-03-01T07:48:42.144Z,6.23
2019-03-01T07:51:12.465Z,5.40
2019-03-01T07:53:42.747Z,4.80
2019-03-01T07:56:13.058Z,5.40
2019-03-01T07:58:46.460Z,1.80
2019-03-01T08:01:16.736Z,4.43
2019-03-01T08:03:52.379Z,3.73
2019-03-01T08:06:20.254Z,2.53
2019-03-01T08:08:50.531Z,3.77
2019-03-01T08:11:20.817Z,7.63
2019-03-01T08:13:53.004Z,2.07
2019-03-01T08:16:25.145Z,4.67
2019-03-01T08:18:55.058Z,2.87
2019-03-01T08:21:25.244Z,2.10
2019-03-01T08:23:55.545Z,4.43
2019-03-01T08:26:25.826Z,3.27
2019-03-01T08:28:58.533Z,1.53
2019-03-01T08:31:28.015Z,2.90
2019-03-01T08:33:58.358Z,2.47
2019-03-01T08:36:28.663Z,8.53
2019-03-01T08:39:01.011Z,5.70
2019-03-01T08:41:31.932Z,2.90
2019-03-01T08:44:02.277Z,4.83
2019-03-01T08:46:32.506Z,5.97
2019-03-01T08:49:02.808Z,4.27
2019-03-01T08:51:33.043Z,22.53
2019-03-01T08:54:03.330Z,20.77
2019-03-01T08:56:33.636Z,4.47
2019-03-01T08:59:03.946Z,5.33
2019-03-01T09:01:34.198Z,4.53
2019-03-01T09:04:08.126Z,2.53
2019-03-01T09:06:38.332Z,3.17
2019-03-01T09:09:08.915Z,3.07
2019-03-01T09:11:41.788Z,2.47
2019-03-01T09:14:11.170Z,3.07
2019-03-01T09:16:41.440Z,1.87
2019-03-01T09:19:11.758Z,3.23
2019-03-01T09:21:44.656Z,3.73
2019-03-01T09:24:14.146Z,4.70
2019-03-01T09:26:44.449Z,2.10
2019-03-01T09:29:19.309Z,1.90
2019-03-01T09:31:50.812Z,3.30
2019-03-01T09:34:21.268Z,2.80
2019-03-01T09:36:54.873Z,3.57
2019-03-01T09:39:26.006Z,2.90
2019-03-01T09:42:02.911Z,0.90
2019-03-01T09:44:28.325Z,1.93
2019-03-01T09:47:01.588Z,3.40
2019-03-01T09:49:30.756Z,1.83
2019-03-01T09:52:01.062Z,3.77
2019-03-01T09:54:31.286Z,7.70
2019-03-01T09:57:01.519Z,3.57
2019-03-01T09:59:31.737Z,1.23
2019-03-01T10:02:02.057Z,1.90
2019-03-01T10:04:32.326Z,1.40
2019-03-01T10:07:02.613Z,2.83
2019-03-01T10:09:32.906Z,4.90
2019-03-01T10:12:03.261Z,3.63
2019-03-01T10:14:33.569Z,3.70
2019-03-01T10:17:03.864Z,1.63
2019-03-01T10:19:34.181Z,0.87
2019-03-01T10:22:04.474Z,1.53
2019-03-01T10:24:34.716Z,4.07
2019-03-01T10:27:04.967Z,7.63
2019-03-01T10:29:35.177Z,4.57
2019-03-01T10:32:05.677Z,3.03
2019-03-01T10:34:35.881Z,3.97
2019-03-01T10:37:06.247Z,5.33
2019-03-01T10:39:36.564Z,3.33
2019-03-01T10:42:06.833Z,5.30
2019-03-01T10:44:37.042Z,2.20
2019-03-01T10:47:07.317Z,5.97
2019-03-01T10:49:37.585Z,4.77
2019-03-01T10:52:07.878Z,23.27
2019-03-01T10:54:39.749Z,4.43
2019-03-01T10:57:10.061Z,2.47
2019-03-01T10:59:40.355Z,1.53
2019-03-01T11:02:11.103Z,2.23
2019-03-01T11:04:41.432Z,2.53
2019-03-01T11:07:11.743Z,3.53
2019-03-01T11:09:42.032Z,3.80
2019-03-01T11:12:12.352Z,2.40
2019-03-01T11:14:42.599Z,3.90
2019-03-01T11:17:12.879Z,4.03
2019-03-01T11:19:43.163Z,3.87
2019-03-01T11:22:13.493Z,2.47
2019-03-01T11:24:43.834Z,12.57
2019-03-01T11:27:14.154Z,7.07
2019-03-01T11:29:44.351Z,1.77
2019-03-01T11:32:14.605Z,3.23
2019-03-01T11:34:47.817Z,2.33
2019-03-01T11:37:21.013Z,5.67
2019-03-01T11:39:51.297Z,1.80
2019-03-01T11:42:21.696Z,1.27
2019-03-01T11:44:51.984Z,2.40
2019-03-01T11:47:22.332Z,2.50
2019-03-01T11:49:52.655Z,1.13
2019-03-01T11:52:22.958Z,1.47
2019-03-01T11:54:53.145Z,2.07
2019-03-01T11:57:23.474Z,1.93
2019-03-01T11:59:53.814Z,4.23
2019-03-01T12:02:24.247Z,2.53
2019-03-01T12:04:54.573Z,3.47
2019-03-01T12:07:24.855Z,5.40
2019-03-01T12:09:55.149Z,2.07
2019-03-01T12:12:25.458Z,1.90
2019-03-01T12:14:55.757Z,2.50
2019-03-01T12:17:26.080Z,2.37
2019-03-01T12:19:56.278Z,2.90
2019-03-01T12:22:26.587Z,3.03
2019-03-01T12:24:57.413Z,1.80
2019-03-01T12:27:27.632Z,5.70
2019-03-01T12:29:57.950Z,2.77
2019-03-01T12:32:28.272Z,4.20
2019-03-01T12:34:58.583Z,4.40
2019-03-01T12:37:28.916Z,5.43
2019-03-01T12:39:59.225Z,6.20
2019-03-01T12:42:29.573Z,4.07
2019-03-01T12:44:59.825Z,4.33
2019-03-01T12:47:30.128Z,4.27
2019-03-01T12:50:00.431Z,3.77
2019-03-01T12:52:30.734Z,3.57
2019-03-01T12:55:00.962Z,3.20
2019-03-01T12:57:31.253Z,2.80
2019-03-01T13:00:01.564Z,4.97
2019-03-01T13:02:31.911Z,3.93
2019-03-01T13:05:02.254Z,2.60
2019-03-01T13:07:32.694Z,4.53
2019-03-01T13:10:06.786Z,3.97
2019-03-01T13:12:34.929Z,3.93
2019-03-01T13:15:05.498Z,3.07
2019-03-01T13:17:37.221Z,4.17
2019-03-01T13:20:10.135Z,4.97
2019-03-01T13:22:40.511Z,2.40
2019-03-01T13:25:10.968Z,5.13
2019-03-01T13:27:41.253Z,2.70
2019-03-01T13:30:14.098Z,3.17
2019-03-01T13:32:44.512Z,2.63
2019-03-01T13:35:15.500Z,4.07
2019-03-01T13:37:45.749Z,3.53
2019-03-01T13:40:16.843Z,3.60
2019-03-01T13:42:50.332Z,2.43
2019-03-01T13:45:19.365Z,3.70
2019-03-01T13:47:49.677Z,2.67
2019-03-01T13:50:19.960Z,3.90
2019-03-01T13:52:50.841Z,4.43
2019-03-01T13:55:23.819Z,6.80
2019-03-01T13:57:53.151Z,5.87
2019-03-01T14:00:23.477Z,3.50
2019-03-01T14:02:53.820Z,3.97
2019-03-01T14:05:24.077Z,2.63
2019-03-01T14:07:56.572Z,3.93
2019-03-01T14:10:26.446Z,3.70
2019-03-01T14:12:56.748Z,5.50
2019-03-01T14:15:27.035Z,3.20
2019-03-01T14:18:00.810Z,3.73
2019-03-01T14:20:29.416Z,4.67
2019-03-01T14:22:59.769Z,6.23
2019-03-01T14:25:30.009Z,5.33
2019-03-01T14:28:04.146Z,4.13
2019-03-01T14:30:33.427Z,4.63
2019-03-01T14:33:03.976Z,5.10
2019-03-01T14:35:34.277Z,6.47
2019-03-01T14:38:04.601Z,6.37
2019-03-01T14:40:34.836Z,6.30
2019-03-01T14:43:05.221Z,10.03
2019-03-01T14:45:35.492Z,7.20
2019-03-01T14:48:08.569Z,9.33
2019-03-01T14:50:37.689Z,10.57
2019-03-01T14:53:07.994Z,9.97
2019-03-01T14:55:41.614Z,11.03
2019-03-01T14:58:22.282Z,11.30
2019-03-01T15:00:58.927Z,10.30
2019-03-01T15:03:31.118Z,13.67
2019-03-01T15:06:01.450Z,10.33
2019-03-01T15:08:31.869Z,10.77
2019-03-01T15:11:08.096Z,13.10
2019-03-01T15:13:36.526Z,11.07
2019-03-01T15:16:07.278Z,10.10
2019-03-01T15:18:40.728Z,14.10
2019-03-01T15:21:11.853Z,12.23
2019-03-01T15:23:42.215Z,10.83
2019-03-01T15:26:12.505Z,13.87
2019-03-01T15:28:46.487Z,9.23
2019-03-01T15:31:16.873Z,10.80
2019-03-01T15:33:47.946Z,12.63
2019-03-01T15:36:19.168Z,14.60
2019-03-01T15:38:49.580Z,13.10
2019-03-01T15:41:19.892Z,13.90
2019-03-01T15:43:50.269Z,12.50
2019-03-01T15:46:20.555Z,10.10
2019-03-01T15:48:50.870Z,12.37
2019-03-01T15:51:21.122Z,9.73
2019-03-01T15:53:51.656Z,11.13
2019-03-01T15:56:22.147Z,12.30
2019-03-01T15:58:52.549Z,13.47
2019-03-01T16:01:22.864Z,12.23
2019-03-01T16:03:54.098Z,12.13
2019-03-01T16:06:27.021Z,12.37
2019-03-01T16:08:57.350Z,10.97
2019-03-01T16:11:27.709Z,11.90
2019-03-01T16:14:00.984Z,12.10
2019-03-01T16:16:40.198Z,9.97
2019-03-01T16:25:22.510Z,10.60
2019-03-01T16:27:54.252Z,14.47
2019-03-01T16:30:24.774Z,10.40
2019-03-01T16:32:54.998Z,16.50
2019-03-01T16:35:25.238Z,10.37
2019-03-01T16:37:57.818Z,10.90
2019-03-01T16:40:28.169Z,14.50
2019-03-01T16:42:58.423Z,11.10
2019-03-01T16:45:28.722Z,13.90
2019-03-01T16:48:00.806Z,12.93
2019-03-01T16:50:30.940Z,12.70
2019-03-01T16:53:04.285Z,14.27
2019-03-01T16:55:33.201Z,12.90
2019-03-01T16:58:07.275Z,15.53
2019-03-01T17:00:35.509Z,17.50
2019-03-01T17:03:06.369Z,16.60
2019-03-01T17:05:38.709Z,15.63
2019-03-01T17:08:08.593Z,15.93
2019-03-01T17:10:38.840Z,15.07
2019-03-01T17:13:09.135Z,13.60
2019-03-01T17:15:39.491Z,16.63
2019-03-01T17:18:12.250Z,14.67
2019-03-01T17:20:41.755Z,15.63
2019-03-01T17:23:12.052Z,15.87
2019-03-01T17:25:42.394Z,13.37
2019-03-01T17:28:12.705Z,16.10
2019-03-01T17:30:43.026Z,14.57
2019-03-01T17:33:13.627Z,15.50
2019-03-01T17:35:44.046Z,16.90
2019-03-01T17:38:14.353Z,14.30
2019-03-01T17:40:44.702Z,17.63
2019-03-01T17:43:15.033Z,19.00
2019-03-01T17:45:45.362Z,17.60
2019-03-01T17:48:18.405Z,16.73
2019-03-01T17:50:47.790Z,14.13
2019-03-01T17:53:18.044Z,13.53
2019-03-01T17:55:48.355Z,14.97
2019-03-01T17:58:18.559Z,14.53
2019-03-01T18:00:48.881Z,13.67
2019-03-01T18:03:19.099Z,16.23
2019-03-01T18:05:49.394Z,15.10
2019-03-01T18:08:21.031Z,16.33
2019-03-01T18:10:52.525Z,14.87
2019-03-01T18:13:23.819Z,17.70
2019-03-01T18:15:55.419Z,18.73
2019-03-01T18:18:27.103Z,16.50
2019-03-01T18:20:57.436Z,16.90
2019-03-01T18:23:27.797Z,16.60
2019-03-01T18:25:59.602Z,17.67
2019-03-01T18:28:29.996Z,19.10
2019-03-01T18:31:00.357Z,21.53
2019-03-01T18:33:30.742Z,18.43
2019-03-01T18:36:00.968Z,16.23
2019-03-01T18:38:32.274Z,18.20
2019-03-01T18:41:02.783Z,20.50
2019-03-01T18:43:33.094Z,17.17
2019-03-01T18:46:03.434Z,20.17
2019-03-01T18:48:33.702Z,20.30
2019-03-01T18:51:06.723Z,17.00
2019-03-01T18:53:35.921Z,17.13
2019-03-01T18:56:06.212Z,16.43
2019-03-01T18:58:36.506Z,19.57
2019-03-01T19:01:10.732Z,17.23
2019-03-01T19:03:40.515Z,18.67
2019-03-01T19:06:12.906Z,20.50
2019-03-01T19:08:43.837Z,19.63
2019-03-01T19:11:14.165Z,21.00
2019-03-01T19:13:44.398Z,18.00
2019-03-01T19:16:14.706Z,20.23
2019-03-01T19:18:44.920Z,20.90
2019-03-01T19:21:17.325Z,22.70
2019-03-01T19:23:47.169Z,23.30
2019-03-01T19:26:17.447Z,25.07
2019-03-01T19:28:47.759Z,25.90
2019-03-01T19:31:18.091Z,27.70
2019-03-01T19:33:48.309Z,27.43
2019-03-01T19:36:18.602Z,26.83
2019-03-01T19:38:48.913Z,30.50
2019-03-01T19:41:20.073Z,33.50
2019-03-01T19:43:57.430Z,30.50
2019-03-01T19:46:23.105Z,32.23
2019-03-01T19:48:53.426Z,31.87
2019-03-01T19:51:23.637Z,34.87
2019-03-01T19:53:53.903Z,34.83
2019-03-01T19:56:25.902Z,35.13
2019-03-01T19:58:56.250Z,39.53
2019-03-01T20:01:26.583Z,37.77
2019-03-01T20:03:57.186Z,40.93
2019-03-01T20:06:27.476Z,36.73
2019-03-01T20:08:57.861Z,38.00
2019-03-01T20:11:28.164Z,38.43
2019-03-01T20:13:58.513Z,36.37
2019-03-01T20:16:28.960Z,38.13
2019-03-01T20:18:59.295Z,38.97
2019-03-01T20:21:29.586Z,39.83
2019-03-01T20:24:01.813Z,38.57
2019-03-01T20:26:31.933Z,38.73
2019-03-01T20:29:02.237Z,39.23
2019-03-01T20:31:32.496Z,36.57
2019-03-01T20:34:02.910Z,39.77
2019-03-01T20:36:33.238Z,36.57
2019-03-01T20:39:04.035Z,40.20
2019-03-01T20:41:36.005Z,41.47
2019-03-01T20:44:06.411Z,40.57
2019-03-01T20:46:40.021Z,36.27
2019-03-01T20:49:08.634Z,38.10
2019-03-01T20:51:40.177Z,39.27
2019-03-01T20:54:10.481Z,34.57
2019-03-01T20:56:40.806Z,34.03
2019-03-01T20:59:12.588Z,40.07
2019-03-01T21:01:43.025Z,32.50
2019-03-01T21:04:13.338Z,33.60
2019-03-01T21:06:43.576Z,32.07
2019-03-01T21:09:13.910Z,37.27
2019-03-01T21:11:44.110Z,34.10
2019-03-01T21:14:14.365Z,33.00
2019-03-01T21:16:44.754Z,33.37
2019-03-01T21:19:16.036Z,35.03
2019-03-01T21:21:46.357Z,32.17
2019-03-01T21:24:16.622Z,37.33
2019-03-01T21:26:47.939Z,35.40
2019-03-01T21:29:18.901Z,32.60
2019-03-01T21:31:49.187Z,33.07
2019-03-01T21:34:19.495Z,30.77
2019-03-01T21:36:49.809Z,32.37
2019-03-01T21:39:20.589Z,35.20
2019-03-01T21:41:52.690Z,35.50
2019-03-01T21:44:22.978Z,31.40
2019-03-01T21:46:53.205Z,36.93
2019-03-01T21:49:23.464Z,32.17
2019-03-01T21:51:55.205Z,30.73
2019-03-01T21:54:25.665Z,32.20
2019-03-01T21:56:57.029Z,32.90
2019-03-01T21:59:30.457Z,31.77
2019-03-01T22:02:00.788Z,38.70
2019-03-01T22:04:31.106Z,31.70
2019-03-01T22:07:02.765Z,33.83
2019-03-01T22:09:33.232Z,32.03
2019-03-01T22:12:03.512Z,30.17
2019-03-01T22:14:33.809Z,30.13
2019-03-01T22:17:04.105Z,31.27
2019-03-01T22:19:34.507Z,30.73
2019-03-01T22:22:04.887Z,29.07
2019-03-01T22:24:35.187Z,28.07
2019-03-01T22:27:05.503Z,30.00
2019-03-01T22:29:35.760Z,28.70
2019-03-01T22:32:07.381Z,30.00
2019-03-01T22:34:38.095Z,29.77
2019-03-01T22:37:08.421Z,33.33
2019-03-01T22:39:38.732Z,29.30
2019-03-01T22:42:11.379Z,31.93
2019-03-01T22:44:40.954Z,31.03
2019-03-01T22:47:11.220Z,29.50
2019-03-01T22:49:41.449Z,31.73
2019-03-01T22:52:11.744Z,35.33
2019-03-01T22:54:42.164Z,34.80
2019-03-01T22:57:12.438Z,34.43
2019-03-01T22:59:43.689Z,32.27
2019-03-01T23:02:17.244Z,37.30
2019-03-01T23:04:47.545Z,38.37
2019-03-01T23:07:17.877Z,34.03
2019-03-01T23:09:48.301Z,32.20
2019-03-01T23:12:18.623Z,30.97
2019-03-01T23:14:48.927Z,31.57
2019-03-01T23:17:19.217Z,33.10
2019-03-01T23:19:51.669Z,31.63
2019-03-01T23:22:21.442Z,34.63
2019-03-01T23:24:51.780Z,32.47
2019-03-01T23:27:22.088Z,33.30
2019-03-01T23:29:54.285Z,33.20
2019-03-01T23:32:24.269Z,32.90
2019-03-01T23:34:54.598Z,36.27
2019-03-01T23:37:24.890Z,34.73
2019-03-01T23:39:57.103Z,33.17
2019-03-01T23:42:27.145Z,32.00
2019-03-01T23:44:57.369Z,31.63
2019-03-01T23:47:27.573Z,33.23
2019-03-01T23:49:59.367Z,32.37
2019-03-01T23:52:29.786Z,32.10
2019-03-01T23:55:00.024Z,33.23
2019-03-01T23:57:30.228Z,34.20
